createdAt,value
2023-08-28T00:01:15.681Z,0.63
2023-08-28T00:03:43.682Z,0.70
2023-08-28T00:06:11.143Z,0.88
2023-08-28T00:08:38.584Z,0.93
2023-08-28T00:11:05.681Z,1.15
2023-08-28T00:13:32.721Z,0.73
2023-08-28T00:15:59.994Z,0.60
2023-08-28T00:18:27.010Z,0.88
2023-08-28T00:20:54.068Z,1.10
2023-08-28T00:23:21.219Z,0.88
2023-08-28T00:25:48.219Z,1.02
2023-08-28T00:28:15.416Z,0.98
2023-08-28T00:30:42.509Z,0.75
2023-08-28T00:33:09.774Z,1.05
2023-08-28T00:35:37.470Z,0.77
2023-08-28T00:38:04.699Z,0.75
2023-08-28T00:40:31.669Z,0.90
2023-08-28T00:42:58.622Z,0.77
2023-08-28T00:45:26.286Z,0.90
2023-08-28T00:47:53.390Z,0.98
2023-08-28T00:50:20.538Z,0.85
2023-08-28T00:52:47.689Z,1.05
2023-08-28T00:55:14.764Z,1.35
2023-08-28T00:57:41.994Z,0.80
2023-08-28T01:00:12.191Z,0.73
2023-08-28T01:05:10.125Z,0.85
2023-08-28T01:07:55.702Z,0.98
2023-08-28T01:10:29.375Z,1.10
2023-08-28T01:13:22.926Z,1.17
2023-08-28T01:15:51.092Z,0.90
2023-08-28T01:18:18.579Z,0.80
2023-08-28T01:20:48.626Z,0.93
2023-08-28T01:23:27.675Z,1.25
2023-08-28T01:25:54.812Z,0.90
2023-08-28T01:28:22.779Z,0.75
2023-08-28T01:30:50.193Z,0.82
2023-08-28T01:33:18.057Z,1.05
2023-08-28T01:35:53.367Z,0.63
2023-08-28T01:38:33.145Z,0.68
2023-08-28T01:41:10.904Z,0.88
2023-08-28T01:43:49.862Z,1.08
2023-08-28T01:46:18.616Z,0.73
2023-08-28T01:48:52.294Z,1.13
2023-08-28T01:51:19.982Z,0.63
2023-08-28T01:53:48.132Z,1.13
2023-08-28T01:56:17.795Z,1.00
2023-08-28T01:58:46.139Z,0.85
2023-08-28T02:01:13.510Z,1.08
2023-08-28T02:03:40.982Z,1.05
2023-08-28T02:06:09.201Z,0.90
2023-08-28T02:08:36.730Z,1.45
2023-08-28T02:11:04.119Z,0.98
2023-08-28T02:13:31.311Z,0.90
2023-08-28T02:15:58.497Z,1.05
2023-08-28T02:18:25.649Z,0.93
2023-08-28T02:20:53.052Z,1.17
2023-08-28T02:23:20.645Z,1.05
2023-08-28T02:25:49.581Z,1.33
2023-08-28T02:28:19.511Z,0.93
2023-08-28T02:30:47.069Z,0.95
2023-08-28T02:33:15.028Z,1.15
2023-08-28T02:35:42.068Z,1.17
2023-08-28T02:38:13.116Z,1.17
2023-08-28T02:40:40.327Z,1.20
2023-08-28T02:43:08.704Z,1.27
2023-08-28T02:45:37.263Z,1.05
2023-08-28T02:48:04.831Z,1.00
2023-08-28T02:50:33.133Z,0.93
2023-08-28T02:53:00.099Z,1.42
2023-08-28T02:55:27.703Z,1.05
2023-08-28T02:57:54.674Z,1.00
2023-08-28T03:00:21.852Z,1.02
2023-08-28T03:02:49.091Z,0.85
2023-08-28T03:05:16.130Z,0.98
2023-08-28T03:07:43.128Z,0.88
2023-08-28T03:10:10.813Z,1.13
2023-08-28T03:12:38.252Z,1.20
2023-08-28T03:15:05.803Z,1.20
2023-08-28T03:17:32.889Z,1.63
2023-08-28T03:20:00.034Z,1.17
2023-08-28T03:22:27.301Z,0.93
2023-08-28T03:24:54.343Z,1.08
2023-08-28T03:27:22.591Z,1.00
2023-08-28T03:29:49.852Z,1.08
2023-08-28T03:32:16.923Z,0.85
2023-08-28T03:34:44.143Z,1.17
2023-08-28T03:37:11.160Z,1.42
2023-08-28T03:39:38.121Z,1.25
2023-08-28T03:42:05.282Z,1.30
2023-08-28T03:44:32.657Z,1.20
2023-08-28T03:46:59.791Z,1.17
2023-08-28T03:49:27.157Z,1.00
2023-08-28T03:51:56.030Z,1.45
2023-08-28T03:54:23.142Z,1.05
2023-08-28T03:56:50.026Z,0.93
2023-08-28T03:59:17.061Z,1.17
2023-08-28T04:01:44.677Z,1.02
2023-08-28T04:04:11.965Z,1.08
2023-08-28T04:06:38.996Z,1.33
2023-08-28T04:09:06.968Z,0.93
2023-08-28T04:11:33.936Z,1.40
2023-08-28T04:14:00.934Z,1.40
2023-08-28T04:16:27.907Z,1.13
2023-08-28T04:18:54.927Z,1.00
2023-08-28T04:21:22.211Z,1.02
2023-08-28T04:23:49.254Z,1.02
2023-08-28T04:26:16.489Z,1.10
2023-08-28T04:28:43.613Z,1.50
2023-08-28T04:31:10.953Z,1.13
2023-08-28T04:33:40.860Z,1.38
2023-08-28T04:36:07.910Z,1.30
2023-08-28T04:38:34.882Z,1.17
2023-08-28T04:41:01.932Z,1.17
2023-08-28T04:43:28.904Z,1.10
2023-08-28T04:45:55.964Z,1.13
2023-08-28T04:48:23.144Z,1.40
2023-08-28T04:50:50.309Z,1.55
2023-08-28T04:53:17.478Z,1.00
2023-08-28T04:55:44.654Z,1.50
2023-08-28T04:58:11.652Z,1.25
2023-08-28T05:00:38.744Z,1.30
2023-08-28T05:03:06.992Z,1.20
2023-08-28T05:05:34.543Z,1.58
2023-08-28T05:08:03.014Z,1.15
2023-08-28T05:10:30.032Z,1.30
2023-08-28T05:12:57.235Z,1.40
2023-08-28T05:15:24.298Z,1.85
2023-08-28T05:17:51.477Z,1.65
2023-08-28T05:20:19.963Z,1.40
2023-08-28T05:22:46.991Z,1.00
2023-08-28T05:25:14.068Z,1.05
2023-08-28T05:27:41.359Z,1.20
2023-08-28T05:30:08.909Z,1.13
2023-08-28T05:32:36.181Z,1.20
2023-08-28T05:37:31.764Z,0.98
2023-08-28T05:39:58.781Z,1.00
2023-08-28T05:42:26.011Z,1.17
2023-08-28T05:44:53.003Z,0.82
2023-08-28T05:47:21.238Z,0.85
2023-08-28T05:49:48.357Z,1.23
2023-08-28T05:52:15.320Z,1.02
2023-08-28T05:54:42.481Z,0.93
2023-08-28T05:57:09.346Z,1.00
2023-08-28T05:59:36.382Z,0.88
2023-08-28T06:02:03.456Z,1.02
2023-08-28T06:04:30.425Z,1.05
2023-08-28T06:06:57.598Z,1.00
2023-08-28T06:09:24.999Z,0.93
2023-08-28T06:11:52.573Z,0.93
2023-08-28T06:14:19.470Z,1.13
2023-08-28T06:16:46.775Z,1.02
2023-08-28T06:19:13.672Z,0.90
2023-08-28T06:21:44.948Z,1.30
2023-08-28T06:24:13.353Z,1.10
2023-08-28T06:26:41.732Z,1.23
2023-08-28T06:29:09.880Z,1.25
2023-08-28T06:31:36.789Z,1.13
2023-08-28T06:34:03.859Z,1.02
2023-08-28T06:36:31.940Z,1.17
2023-08-28T06:38:58.997Z,1.40
2023-08-28T06:41:25.993Z,1.33
2023-08-28T06:43:52.748Z,1.05
2023-08-28T06:46:20.048Z,1.33
2023-08-28T06:48:47.005Z,1.20
2023-08-28T06:51:13.909Z,1.00
2023-08-28T06:53:41.094Z,0.82
2023-08-28T06:56:08.785Z,0.93
2023-08-28T06:58:36.154Z,1.40
2023-08-28T07:01:03.454Z,1.48
2023-08-28T07:03:30.547Z,1.23
2023-08-28T07:05:57.954Z,1.30
2023-08-28T07:08:24.904Z,1.30
2023-08-28T07:10:52.233Z,1.40
2023-08-28T07:13:19.268Z,1.30
2023-08-28T07:15:46.257Z,1.42
2023-08-28T07:18:13.940Z,1.05
2023-08-28T07:20:40.839Z,1.30
2023-08-28T07:23:08.373Z,1.23
2023-08-28T07:25:35.554Z,1.10
2023-08-28T07:28:03.287Z,1.48
2023-08-28T07:30:30.191Z,0.93
2023-08-28T07:32:57.399Z,1.20
2023-08-28T07:35:24.762Z,1.27
2023-08-28T07:37:51.791Z,1.33
2023-08-28T07:40:18.775Z,1.20
2023-08-28T07:42:45.650Z,1.50
2023-08-28T07:45:12.580Z,1.20
2023-08-28T07:47:40.232Z,2.42
2023-08-28T07:50:08.801Z,1.70
2023-08-28T07:52:35.741Z,2.03
2023-08-28T07:55:03.600Z,1.60
2023-08-28T07:57:34.569Z,1.92
2023-08-28T08:00:07.512Z,1.80
2023-08-28T08:02:35.402Z,1.63
2023-08-28T08:05:02.231Z,2.10
2023-08-28T08:07:29.010Z,1.65
2023-08-28T08:10:05.151Z,1.90
2023-08-28T08:12:33.945Z,1.63
2023-08-28T08:15:01.042Z,1.83
2023-08-28T08:17:28.029Z,1.58
2023-08-28T08:19:55.346Z,1.70
2023-08-28T08:22:22.410Z,1.40
2023-08-28T08:24:49.388Z,1.70
2023-08-28T08:27:16.862Z,1.52
2023-08-28T08:29:44.260Z,1.35
2023-08-28T08:32:11.116Z,1.63
2023-08-28T08:34:38.262Z,1.38
2023-08-28T08:37:05.269Z,1.23
2023-08-28T08:39:32.012Z,1.10
2023-08-28T08:41:59.226Z,1.40
2023-08-28T08:44:26.031Z,1.15
2023-08-28T08:46:53.631Z,1.25
2023-08-28T08:49:28.061Z,1.20
2023-08-28T08:52:01.115Z,1.20
2023-08-28T08:54:35.699Z,1.13
2023-08-28T08:57:47.379Z,1.20
2023-08-28T09:00:19.418Z,0.95
2023-08-28T09:02:47.779Z,0.90
2023-08-28T09:05:16.229Z,0.95
2023-08-28T09:07:44.531Z,1.20
2023-08-28T09:10:11.758Z,0.90
2023-08-28T09:12:38.564Z,0.93
2023-08-28T09:15:06.405Z,1.30
2023-08-28T09:17:39.742Z,1.02
2023-08-28T09:20:18.040Z,1.13
2023-08-28T09:22:53.892Z,1.13
2023-08-28T09:25:30.354Z,0.95
2023-08-28T09:27:58.456Z,1.33
2023-08-28T09:30:33.753Z,0.93
2023-08-28T09:33:04.182Z,1.02
2023-08-28T09:35:51.975Z,1.02
2023-08-28T09:38:19.731Z,1.08
2023-08-28T09:40:47.958Z,1.10
2023-08-28T09:43:17.182Z,1.17
2023-08-28T09:45:46.183Z,1.30
2023-08-28T09:48:14.550Z,1.23
2023-08-28T09:50:42.884Z,1.13
2023-08-28T09:53:14.810Z,1.00
2023-08-28T09:55:52.532Z,1.00
2023-08-28T09:58:23.157Z,1.10
2023-08-28T10:00:51.950Z,0.95
2023-08-28T10:03:21.720Z,1.20
2023-08-28T10:05:51.252Z,1.30
2023-08-28T10:08:18.893Z,1.13
2023-08-28T10:10:49.223Z,0.93
2023-08-28T10:13:20.365Z,1.50
2023-08-28T10:16:05.174Z,1.20
2023-08-28T10:18:39.335Z,1.58
2023-08-28T10:21:07.418Z,1.42
2023-08-28T10:23:39.180Z,1.15
2023-08-28T10:26:07.937Z,1.65
2023-08-28T10:28:35.793Z,1.20
2023-08-28T10:31:06.491Z,1.35
2023-08-28T10:33:35.888Z,1.23
2023-08-28T10:36:04.229Z,1.00
2023-08-28T10:38:31.922Z,1.27
2023-08-28T10:41:01.120Z,1.48
2023-08-28T10:43:28.993Z,1.17
2023-08-28T10:46:00.694Z,1.33
2023-08-28T10:48:29.040Z,1.27
2023-08-28T10:51:00.617Z,1.25
2023-08-28T10:53:30.723Z,1.20
2023-08-28T10:56:01.966Z,1.27
2023-08-28T10:58:33.153Z,1.30
2023-08-28T11:01:13.915Z,1.30
2023-08-28T11:04:16.703Z,1.13
2023-08-28T11:06:46.078Z,1.73
2023-08-28T11:09:31.153Z,1.25
2023-08-28T11:12:03.339Z,1.40
2023-08-28T11:17:09.229Z,1.10
2023-08-28T11:19:54.571Z,1.30
2023-08-28T11:22:30.789Z,1.20
2023-08-28T11:24:58.264Z,1.30
2023-08-28T11:27:54.640Z,0.93
2023-08-28T11:30:23.225Z,1.15
2023-08-28T11:32:52.949Z,1.08
2023-08-28T11:35:22.040Z,1.13
2023-08-28T11:37:52.211Z,1.40
2023-08-28T11:40:21.067Z,1.58
2023-08-28T11:42:49.591Z,1.20
2023-08-28T11:45:25.918Z,1.20
2023-08-28T11:47:53.982Z,1.10
2023-08-28T11:50:21.080Z,1.10
2023-08-28T11:52:51.702Z,0.95
2023-08-28T11:55:20.965Z,0.98
2023-08-28T11:57:50.784Z,1.20
2023-08-28T12:00:18.980Z,0.73
2023-08-28T12:02:49.289Z,1.00
2023-08-28T12:05:17.685Z,0.90
2023-08-28T12:07:46.212Z,1.10
2023-08-28T12:10:18.709Z,0.80
2023-08-28T12:12:45.979Z,0.90
2023-08-28T12:15:13.155Z,0.90
2023-08-28T12:17:40.800Z,0.73
2023-08-28T12:20:18.223Z,1.33
2023-08-28T12:22:45.994Z,1.17
2023-08-28T12:25:13.396Z,0.82
2023-08-28T12:27:40.472Z,1.13
2023-08-28T12:30:20.935Z,1.08
2023-08-28T12:32:54.889Z,0.90
2023-08-28T12:35:23.942Z,1.10
2023-08-28T12:37:52.875Z,1.48
2023-08-28T12:40:20.885Z,0.93
2023-08-28T12:42:47.897Z,1.10
2023-08-28T12:45:14.875Z,1.10
2023-08-28T12:47:42.968Z,1.27
2023-08-28T12:50:11.451Z,1.20
2023-08-28T12:52:38.780Z,1.02
2023-08-28T12:55:06.280Z,0.95
2023-08-28T12:57:33.743Z,1.23
2023-08-28T13:00:00.776Z,1.13
2023-08-28T13:02:28.296Z,0.93
2023-08-28T13:04:55.554Z,1.17
2023-08-28T13:07:22.942Z,1.02
2023-08-28T13:09:50.221Z,1.00
2023-08-28T13:12:17.390Z,1.00
2023-08-28T13:14:44.263Z,0.90
2023-08-28T13:17:11.217Z,0.80
2023-08-28T13:19:38.312Z,1.05
2023-08-28T13:22:05.199Z,1.10
2023-08-28T13:24:43.133Z,1.02
2023-08-28T13:27:12.381Z,1.33
2023-08-28T13:29:39.532Z,1.02
2023-08-28T13:32:06.832Z,0.93
2023-08-28T13:34:34.135Z,1.02
2023-08-28T13:37:06.672Z,1.05
2023-08-28T13:39:34.317Z,0.90
2023-08-28T13:42:01.467Z,0.85
2023-08-28T13:44:31.349Z,1.02
2023-08-28T13:46:59.376Z,0.90
2023-08-28T13:49:26.329Z,1.20
2023-08-28T13:51:53.252Z,1.20
2023-08-28T13:54:20.125Z,0.90
2023-08-28T13:56:47.268Z,0.95
2023-08-28T13:59:14.288Z,1.02
2023-08-28T14:01:43.924Z,1.20
2023-08-28T14:04:12.725Z,0.98
2023-08-28T14:06:39.713Z,1.05
2023-08-28T14:09:06.999Z,0.77
2023-08-28T14:11:34.168Z,1.17
2023-08-28T14:14:01.760Z,1.27
2023-08-28T14:16:28.869Z,1.00
2023-08-28T14:18:55.863Z,1.05
2023-08-28T14:21:23.087Z,0.93
2023-08-28T14:23:50.876Z,0.82
2023-08-28T14:26:17.898Z,0.90
2023-08-28T14:28:45.066Z,1.20
2023-08-28T14:31:12.189Z,0.82
2023-08-28T14:33:39.923Z,1.02
2023-08-28T14:36:07.184Z,1.55
2023-08-28T14:38:34.120Z,0.90
2023-08-28T14:41:01.084Z,0.77
2023-08-28T14:43:28.319Z,1.00
2023-08-28T14:45:55.514Z,0.73
2023-08-28T14:48:22.827Z,0.60
2023-08-28T14:50:49.952Z,0.70
2023-08-28T14:53:17.059Z,0.93
2023-08-28T14:55:44.243Z,0.98
2023-08-28T14:58:11.473Z,1.10
2023-08-28T15:00:38.718Z,0.90
2023-08-28T15:03:06.280Z,0.63
2023-08-28T15:05:37.524Z,0.90
2023-08-28T15:08:15.629Z,0.70
2023-08-28T15:10:44.727Z,0.90
2023-08-28T15:13:12.115Z,0.82
2023-08-28T15:15:45.604Z,0.75
2023-08-28T15:18:12.896Z,0.93
2023-08-28T15:20:39.904Z,0.70
2023-08-28T15:23:06.995Z,0.85
2023-08-28T15:25:34.367Z,1.20
2023-08-28T15:28:01.768Z,0.70
2023-08-28T15:30:31.040Z,0.70
2023-08-28T15:32:58.690Z,0.85
2023-08-28T15:35:26.825Z,0.70
2023-08-28T15:37:54.036Z,0.80
2023-08-28T15:40:22.626Z,1.30
2023-08-28T15:42:49.998Z,0.88
2023-08-28T15:45:16.983Z,0.68
2023-08-28T15:47:45.400Z,0.60
2023-08-28T15:50:12.345Z,0.75
2023-08-28T15:52:39.350Z,0.63
2023-08-28T15:55:07.107Z,0.50
2023-08-28T15:57:34.072Z,0.90
2023-08-28T16:00:01.053Z,0.50
2023-08-28T16:02:28.005Z,0.77
2023-08-28T16:04:54.889Z,0.55
2023-08-28T16:07:23.227Z,0.82
2023-08-28T16:09:50.461Z,0.75
2023-08-28T16:12:17.709Z,0.82
2023-08-28T16:14:44.730Z,0.60
2023-08-28T16:17:11.832Z,0.60
2023-08-28T16:19:38.855Z,0.70
2023-08-28T16:22:05.676Z,0.93
2023-08-28T16:24:32.880Z,0.63
2023-08-28T16:27:00.086Z,0.73
2023-08-28T16:29:30.313Z,0.60
2023-08-28T16:31:57.307Z,0.70
2023-08-28T16:34:24.278Z,0.70
2023-08-28T16:36:51.970Z,0.77
2023-08-28T16:39:18.880Z,0.80
2023-08-28T16:41:46.207Z,0.63
2023-08-28T16:44:13.166Z,0.88
2023-08-28T16:46:40.440Z,0.77
2023-08-28T16:49:07.889Z,0.60
2023-08-28T16:51:34.976Z,0.60
2023-08-28T16:54:02.063Z,0.85
2023-08-28T16:56:29.204Z,0.65
2023-08-28T16:58:58.446Z,0.60
2023-08-28T17:01:25.334Z,0.90
2023-08-28T17:03:52.469Z,0.90
2023-08-28T17:06:19.488Z,0.70
2023-08-28T17:08:46.220Z,0.77
2023-08-28T17:11:13.137Z,0.52
2023-08-28T17:13:40.410Z,0.85
2023-08-28T17:16:07.495Z,0.90
2023-08-28T17:18:34.477Z,0.85
2023-08-28T17:21:01.502Z,0.90
2023-08-28T17:23:28.856Z,0.77
2023-08-28T17:25:55.906Z,0.90
2023-08-28T17:28:22.864Z,1.00
2023-08-28T17:30:50.043Z,1.02
2023-08-28T17:33:16.983Z,1.00
2023-08-28T17:35:44.131Z,0.80
2023-08-28T17:38:11.284Z,1.05
2023-08-28T17:40:43.022Z,0.82
2023-08-28T17:43:10.244Z,0.98
2023-08-28T17:45:37.329Z,1.02
2023-08-28T17:48:04.599Z,1.15
2023-08-28T17:50:31.653Z,0.93
2023-08-28T17:52:58.473Z,0.95
2023-08-28T17:55:25.437Z,1.30
2023-08-28T17:57:52.721Z,1.30
2023-08-28T18:00:20.421Z,1.13
2023-08-28T18:03:18.490Z,1.42
2023-08-28T18:05:34.465Z,0.95
2023-08-28T18:08:01.858Z,1.30
2023-08-28T18:10:29.150Z,1.38
2023-08-28T18:12:56.209Z,0.93
2023-08-28T18:15:23.231Z,1.02
2023-08-28T18:17:51.110Z,0.98
2023-08-28T18:20:21.032Z,1.27
2023-08-28T18:25:15.296Z,0.90
2023-08-28T18:27:56.453Z,1.05
2023-08-28T18:30:29.346Z,1.13
2023-08-28T18:32:56.481Z,0.80
2023-08-28T18:35:23.714Z,1.08
2023-08-28T18:37:50.865Z,1.02
2023-08-28T18:40:17.916Z,0.90
2023-08-28T18:42:45.085Z,0.73
2023-08-28T18:45:12.334Z,1.13
2023-08-28T18:47:39.631Z,1.35
2023-08-28T18:50:07.301Z,1.08
2023-08-28T18:52:34.408Z,1.25
2023-08-28T18:55:01.355Z,1.10
2023-08-28T18:57:28.532Z,1.23
2023-08-28T18:59:55.490Z,1.13
2023-08-28T19:02:22.508Z,1.02
2023-08-28T19:04:49.603Z,1.13
2023-08-28T19:07:18.404Z,1.42
2023-08-28T19:09:47.340Z,1.13
2023-08-28T19:12:14.384Z,1.23
2023-08-28T19:14:41.821Z,1.30
2023-08-28T19:17:09.051Z,1.15
2023-08-28T19:19:36.164Z,0.93
2023-08-28T19:22:03.008Z,1.00
2023-08-28T19:24:30.099Z,1.38
2023-08-28T19:26:57.373Z,0.88
2023-08-28T19:29:24.507Z,1.33
2023-08-28T19:31:51.593Z,1.30
2023-08-28T19:34:18.623Z,0.90
2023-08-28T19:36:45.754Z,1.02
2023-08-28T19:39:14.354Z,1.02
2023-08-28T19:41:41.839Z,1.08
2023-08-28T19:44:09.066Z,1.20
2023-08-28T19:46:36.038Z,1.17
2023-08-28T19:49:03.143Z,1.13
2023-08-28T19:51:30.537Z,1.30
2023-08-28T19:53:57.851Z,1.13
2023-08-28T19:56:25.609Z,1.15
2023-08-28T19:58:52.627Z,1.38
2023-08-28T20:01:19.580Z,1.50
2023-08-28T20:03:46.859Z,1.50
2023-08-28T20:06:14.334Z,1.15
2023-08-28T20:08:41.281Z,1.00
2023-08-28T20:11:08.567Z,1.45
2023-08-28T20:13:36.081Z,1.58
2023-08-28T20:16:03.499Z,1.25
2023-08-28T20:18:31.129Z,1.42
2023-08-28T20:20:58.188Z,1.63
2023-08-28T20:23:25.343Z,1.38
2023-08-28T20:25:52.715Z,1.42
2023-08-28T20:28:19.861Z,1.17
2023-08-28T20:30:47.081Z,1.40
2023-08-28T20:33:14.217Z,1.30
2023-08-28T20:35:41.181Z,1.35
2023-08-28T20:38:08.548Z,1.52
2023-08-28T20:40:40.025Z,1.52
2023-08-28T20:43:08.436Z,1.40
2023-08-28T20:45:35.522Z,1.40
2023-08-28T20:48:03.222Z,1.48
2023-08-28T20:50:32.506Z,1.30
2023-08-28T20:52:59.592Z,1.45
2023-08-28T20:55:26.896Z,1.42
2023-08-28T20:57:54.155Z,1.40
2023-08-28T21:00:21.404Z,1.25
2023-08-28T21:02:48.540Z,1.48
2023-08-28T21:05:15.704Z,1.52
2023-08-28T21:07:43.471Z,1.40
2023-08-28T21:10:13.691Z,1.42
2023-08-28T21:12:40.870Z,1.67
2023-08-28T21:15:07.998Z,1.90
2023-08-28T21:17:35.007Z,1.67
2023-08-28T21:20:02.052Z,1.67
2023-08-28T21:22:29.889Z,1.65
2023-08-28T21:24:57.096Z,1.60
2023-08-28T21:27:24.320Z,2.00
2023-08-28T21:29:51.407Z,1.80
2023-08-28T21:32:18.585Z,1.77
2023-08-28T21:34:45.938Z,1.50
2023-08-28T21:37:13.041Z,1.90
2023-08-28T21:39:40.059Z,1.83
2023-08-28T21:42:07.272Z,1.95
2023-08-28T21:44:34.347Z,2.10
2023-08-28T21:47:01.486Z,1.90
2023-08-28T21:49:28.844Z,1.88
2023-08-28T21:51:58.186Z,1.98
2023-08-28T21:54:25.180Z,2.05
2023-08-28T21:56:52.094Z,1.83
2023-08-28T21:59:20.070Z,2.10
2023-08-28T22:01:46.962Z,1.90
2023-08-28T22:04:14.550Z,1.50
2023-08-28T22:06:43.697Z,1.63
2023-08-28T22:09:12.108Z,1.65
2023-08-28T22:11:39.304Z,1.90
2023-08-28T22:14:06.324Z,2.08
2023-08-28T22:16:33.733Z,1.52
2023-08-28T22:19:00.875Z,1.75
2023-08-28T22:21:27.940Z,1.80
2023-08-28T22:23:55.308Z,1.65
2023-08-28T22:26:23.331Z,1.90
2023-08-28T22:28:50.303Z,1.75
2023-08-28T22:31:17.702Z,2.15
2023-08-28T22:33:44.912Z,2.10
2023-08-28T22:36:11.953Z,1.77
2023-08-28T22:38:39.088Z,2.40
2023-08-28T22:41:06.151Z,1.98
2023-08-28T22:43:33.217Z,2.30
2023-08-28T22:46:00.343Z,1.95
2023-08-28T22:48:27.508Z,2.25
2023-08-28T22:50:54.536Z,1.83
2023-08-28T22:53:21.580Z,1.92
2023-08-28T22:55:48.881Z,1.83
2023-08-28T22:58:16.233Z,1.73
2023-08-28T23:00:43.926Z,1.35
2023-08-28T23:03:11.325Z,1.52
2023-08-28T23:05:44.568Z,1.63
2023-08-28T23:08:11.833Z,1.50
2023-08-28T23:10:38.829Z,2.13
2023-08-28T23:13:05.770Z,1.90
2023-08-28T23:15:35.501Z,1.95
2023-08-28T23:18:04.375Z,2.13
2023-08-28T23:20:32.581Z,2.00
2023-08-28T23:22:59.547Z,2.30
2023-08-28T23:25:27.838Z,2.30
2023-08-28T23:27:56.069Z,2.70
2023-08-28T23:30:23.077Z,2.20
2023-08-28T23:34:09.931Z,2.42
2023-08-28T23:36:36.834Z,2.03
2023-08-28T23:39:08.780Z,2.80
2023-08-28T23:41:35.845Z,2.40
2023-08-28T23:44:02.835Z,2.72
2023-08-28T23:46:29.941Z,2.92
2023-08-28T23:48:56.970Z,2.90
2023-08-28T23:51:23.995Z,2.88
2023-08-28T23:53:51.036Z,2.92
2023-08-28T23:56:17.941Z,2.58
2023-08-28T23:58:44.773Z,3.05
